windsock image

Welcome to Bigfield Strip.

anemometer image
     

 Help for dials.  
 
Local Met:

Wind:   
10 Min average:  
176 ° / 0.0 kts (0.0)
176° / 0.0

Temperature:  
10.7°C C
Dew Point:  
9.3°C C
QNH:  
Trend:  
1022.0 mb mb
+0.5mb/hr
BigField Strip. This image updates approximately every minute, it can have a two minute delay.  
 

Humidity:  
91 %
Sunrise:   05:16z
Sunset:   18:49z
Updated:  
  UTC
 
   More met info, trends, radar, history etc. available here   

LUTON Metar   EGGW 010120Z AUTO 29007KT 9999 BKN044 14/12 Q1022
 
  TAF   2016/08/31 18:15 TAF EGGW 311653Z 3118/0118 25009KT 9999 SCT025 PROB30 0103/0107 8000
 
BENSON Metar   EGUB 010050Z 00000KT CAVOK 11/10 Q1022 BLU NOSIG
 
  TAF   2016/08/31 21:03 TAF TAF EGUB 311939Z 3121/0102 22005KT 9999 FEW040
 
Big Field view 1 icon   Big Field view 2 icon   Big Field view 3 icon   Chart AL3a in PDF icon   Chart AL3a in Word icon

WARNING:
This information is provided by the Airstrip unofficial weather station, DO NOT depend on the data provided here for any purpose.
This page is updated for latest Metars & TAF's every 5 minutes. Refresh the browser to check for the lastest.
Page designed for a minimum browser size of 1024x768.
© Copyright 2016 BigField Strip. This page auto generated 01:46 UTC - 01/09/2016   Contact Us
Valid HTML 4.01 Transitional     Windows uptime: 2 Days 23 Hours 14 Minutes 16 Seconds    WD started: 02:37 29/08/16    Free memory: 1409MB     Valid CSS!